createdAt,value
2018-12-06T00:01:59.731Z,7.97
2018-12-06T00:04:33.199Z,8.70
2018-12-06T00:07:07.073Z,9.30
2018-12-06T00:09:39.745Z,6.03
2018-12-06T00:12:12.446Z,8.00
2018-12-06T00:14:44.901Z,6.60
2018-12-06T00:17:17.813Z,10.03
2018-12-06T00:19:51.382Z,7.80
2018-12-06T00:22:25.296Z,9.90
2018-12-06T00:24:57.817Z,11.03
2018-12-06T00:27:31.849Z,15.20
2018-12-06T00:30:14.014Z,14.03
2018-12-06T00:32:46.897Z,11.90
2018-12-06T00:35:20.326Z,11.13
2018-12-06T00:37:53.302Z,14.60
2018-12-06T00:40:25.914Z,7.97
2018-12-06T00:42:58.670Z,10.57
2018-12-06T00:45:31.180Z,5.63
2018-12-06T00:48:03.945Z,7.00
2018-12-06T00:50:36.379Z,10.57
2018-12-06T00:53:09.251Z,10.93
2018-12-06T00:55:42.006Z,8.05
2018-12-06T00:58:14.869Z,6.30
2018-12-06T01:00:47.612Z,6.80
2018-12-06T01:03:21.019Z,5.73
2018-12-06T01:05:53.750Z,10.30
2018-12-06T01:08:26.590Z,6.23
2018-12-06T01:11:00.108Z,5.63
2018-12-06T01:13:32.803Z,13.77
2018-12-06T01:16:06.062Z,6.33
2018-12-06T01:18:40.136Z,8.57
2018-12-06T01:21:13.740Z,6.07
2018-12-06T01:23:46.506Z,7.60
2018-12-06T01:26:19.261Z,7.40
2018-12-06T01:28:52.214Z,8.33
2018-12-06T01:31:24.763Z,5.77
2018-12-06T01:33:57.884Z,6.97
2018-12-06T01:36:30.690Z,7.70
2018-12-06T01:39:03.677Z,11.45
2018-12-06T01:41:36.647Z,20.47
2018-12-06T01:44:09.502Z,9.13
2018-12-06T01:46:43.136Z,7.00
2018-12-06T01:49:16.483Z,5.50
2018-12-06T01:51:49.123Z,6.23
2018-12-06T01:54:21.833Z,4.70
2018-12-06T01:56:54.596Z,5.20
2018-12-06T01:59:28.099Z,5.95
2018-12-06T02:02:01.498Z,6.13
2018-12-06T02:04:34.459Z,4.57
2018-12-06T02:07:08.333Z,5.20
2018-12-06T02:09:41.347Z,5.10
2018-12-06T02:12:16.919Z,7.62
2018-12-06T02:14:49.806Z,7.30
2018-12-06T02:17:26.322Z,7.60
2018-12-06T02:19:59.290Z,6.13
2018-12-06T02:22:32.066Z,6.20
2018-12-06T02:25:04.824Z,6.40
2018-12-06T02:27:38.483Z,5.30
2018-12-06T02:30:11.247Z,4.43
2018-12-06T02:32:43.997Z,4.80
2018-12-06T02:35:16.887Z,5.47
2018-12-06T02:37:49.605Z,5.00
2018-12-06T02:40:27.124Z,4.50
2018-12-06T02:43:03.405Z,4.60
2018-12-06T02:45:35.989Z,6.23
2018-12-06T02:48:08.469Z,4.73
2018-12-06T02:50:41.349Z,4.97
2018-12-06T02:53:14.034Z,5.30
2018-12-06T02:55:47.624Z,5.30
2018-12-06T02:58:20.326Z,4.90
2018-12-06T03:00:53.049Z,4.97
2018-12-06T03:03:25.723Z,4.43
2018-12-06T03:05:58.551Z,5.03
2018-12-06T03:08:31.179Z,4.80
2018-12-06T03:11:04.087Z,4.63
2018-12-06T03:13:37.051Z,3.87
2018-12-06T03:16:09.736Z,3.87
2018-12-06T03:18:42.327Z,4.57
2018-12-06T03:21:15.138Z,4.70
2018-12-06T03:23:49.076Z,4.20
2018-12-06T03:26:22.130Z,4.00
2018-12-06T03:28:54.985Z,4.47
2018-12-06T03:31:27.855Z,4.43
2018-12-06T03:34:00.416Z,4.20
2018-12-06T03:36:33.168Z,3.93
2018-12-06T03:39:07.136Z,3.30
2018-12-06T03:41:39.973Z,3.80
2018-12-06T03:44:12.941Z,3.93
2018-12-06T03:46:45.527Z,4.13
2018-12-06T03:49:18.326Z,4.30
2018-12-06T03:51:51.148Z,4.70
2018-12-06T03:54:23.741Z,4.40
2018-12-06T03:56:56.568Z,4.47
2018-12-06T03:59:29.249Z,3.43
2018-12-06T04:02:02.110Z,4.78
2018-12-06T04:04:34.594Z,4.17
2018-12-06T04:07:08.074Z,4.00
2018-12-06T04:09:40.686Z,4.73
2018-12-06T04:12:13.238Z,4.73
2018-12-06T04:14:45.915Z,11.37
2018-12-06T04:17:18.673Z,7.27
2018-12-06T04:19:51.394Z,4.17
2018-12-06T04:22:24.109Z,5.03
2018-12-06T04:24:56.742Z,4.33
2018-12-06T04:27:29.566Z,3.90
2018-12-06T04:30:02.205Z,4.37
2018-12-06T04:32:35.959Z,4.73
2018-12-06T04:35:08.485Z,5.20
2018-12-06T04:37:41.078Z,4.40
2018-12-06T04:40:13.591Z,3.93
2018-12-06T04:42:45.959Z,5.20
2018-12-06T04:45:19.394Z,5.70
2018-12-06T04:47:52.113Z,22.65
2018-12-06T04:50:24.621Z,67.43
2018-12-06T04:52:58.520Z,30.63
2018-12-06T04:55:31.145Z,20.90
2018-12-06T04:58:03.890Z,57.50
2018-12-06T05:00:36.393Z,43.60
2018-12-06T05:03:10.319Z,18.80
2018-12-06T05:05:42.958Z,10.63
2018-12-06T05:08:15.908Z,5.77
2018-12-06T05:10:48.442Z,7.20
2018-12-06T05:13:21.586Z,5.77
2018-12-06T05:15:54.384Z,5.77
2018-12-06T05:18:27.100Z,4.80
2018-12-06T05:21:00.315Z,4.75
2018-12-06T05:23:33.119Z,4.90
2018-12-06T05:26:05.765Z,5.07
2018-12-06T05:28:38.579Z,4.63
2018-12-06T05:31:11.209Z,4.53
2018-12-06T05:33:43.961Z,4.50
2018-12-06T05:36:17.821Z,5.03
2018-12-06T05:38:51.467Z,10.00
2018-12-06T05:41:23.774Z,17.47
2018-12-06T05:43:57.223Z,11.83
2018-12-06T05:46:29.935Z,7.40
2018-12-06T05:49:03.667Z,5.63
2018-12-06T05:51:36.452Z,9.50
2018-12-06T05:54:09.105Z,6.42
2018-12-06T05:56:41.659Z,6.53
2018-12-06T05:59:14.391Z,5.37
2018-12-06T06:01:47.212Z,4.77
2018-12-06T06:04:19.770Z,4.43
2018-12-06T06:06:52.507Z,4.40
2018-12-06T06:09:25.686Z,4.33
2018-12-06T06:11:59.391Z,4.10
2018-12-06T06:14:35.422Z,4.13
2018-12-06T06:17:08.248Z,4.40
2018-12-06T06:19:40.922Z,4.83
2018-12-06T06:22:13.336Z,5.07
2018-12-06T06:24:46.803Z,5.10
2018-12-06T06:27:20.401Z,5.40
2018-12-06T06:29:53.203Z,3.40
2018-12-06T06:32:25.638Z,4.83
2018-12-06T06:34:58.159Z,5.30
2018-12-06T06:37:30.988Z,5.13
2018-12-06T06:40:04.479Z,4.90
2018-12-06T06:42:37.222Z,4.67
2018-12-06T06:45:10.064Z,4.70
2018-12-06T06:47:42.840Z,7.00
2018-12-06T06:50:15.819Z,4.47
2018-12-06T06:52:48.315Z,4.70
2018-12-06T06:55:21.031Z,5.27
2018-12-06T06:57:53.627Z,4.67
2018-12-06T07:00:26.343Z,4.80
2018-12-06T07:02:58.822Z,5.83
2018-12-06T07:05:31.734Z,4.40
2018-12-06T07:08:04.925Z,4.03
2018-12-06T07:10:37.713Z,4.00
2018-12-06T07:13:10.237Z,5.50
2018-12-06T07:15:42.822Z,4.20
2018-12-06T07:18:16.370Z,4.60
2018-12-06T07:27:51.004Z,3.70
2018-12-06T07:30:23.674Z,5.50
2018-12-06T07:32:56.357Z,4.17
2018-12-06T07:35:29.118Z,4.10
2018-12-06T07:38:01.883Z,4.20
2018-12-06T07:40:38.158Z,5.20
2018-12-06T07:43:10.830Z,4.63
2018-12-06T07:45:43.393Z,4.43
2018-12-06T07:48:15.934Z,4.53
2018-12-06T07:50:48.666Z,4.70
2018-12-06T07:53:21.599Z,4.60
2018-12-06T07:55:54.112Z,7.43
2018-12-06T07:58:26.854Z,4.33
2018-12-06T08:00:59.632Z,4.40
2018-12-06T08:03:32.626Z,4.50
2018-12-06T08:06:06.208Z,5.03
2018-12-06T08:08:38.939Z,4.75
2018-12-06T08:11:11.525Z,4.50
2018-12-06T08:13:44.293Z,4.13
2018-12-06T08:16:17.367Z,4.17
2018-12-06T08:18:50.153Z,4.70
2018-12-06T08:21:23.031Z,6.00
2018-12-06T08:23:55.606Z,5.00
2018-12-06T08:26:28.412Z,5.97
2018-12-06T08:29:01.895Z,5.30
2018-12-06T08:31:35.650Z,5.00
2018-12-06T08:34:08.612Z,5.17
2018-12-06T08:36:41.200Z,4.60
2018-12-06T08:39:13.714Z,5.50
2018-12-06T08:41:46.342Z,5.40
2018-12-06T08:44:21.503Z,5.30
2018-12-06T08:46:53.975Z,5.17
2018-12-06T08:49:26.764Z,5.20
2018-12-06T08:51:59.353Z,5.03
2018-12-06T08:54:31.908Z,5.03
2018-12-06T08:57:04.624Z,4.73
2018-12-06T08:59:37.230Z,4.60
2018-12-06T09:02:09.911Z,4.97
2018-12-06T09:04:42.703Z,6.00
2018-12-06T09:07:15.679Z,4.73
2018-12-06T09:09:48.264Z,4.73
2018-12-06T09:12:21.046Z,5.07
2018-12-06T09:14:53.922Z,5.40
2018-12-06T09:17:26.441Z,6.07
2018-12-06T09:19:59.089Z,5.27
2018-12-06T09:22:31.802Z,4.70
2018-12-06T09:25:04.651Z,5.03
2018-12-06T09:27:37.284Z,4.83
2018-12-06T09:30:10.424Z,5.40
2018-12-06T09:32:42.962Z,6.07
2018-12-06T09:35:15.579Z,5.03
2018-12-06T09:37:48.390Z,4.57
2018-12-06T09:40:21.857Z,5.43
2018-12-06T09:42:54.614Z,10.40
2018-12-06T09:45:27.536Z,5.20
2018-12-06T09:48:00.030Z,4.53
2018-12-06T09:50:33.499Z,5.10
2018-12-06T09:53:06.037Z,4.60
2018-12-06T09:55:38.947Z,4.47
2018-12-06T09:58:11.613Z,4.40
2018-12-06T10:00:44.322Z,4.73
2018-12-06T10:03:17.922Z,5.10
2018-12-06T10:05:50.779Z,4.50
2018-12-06T10:08:23.460Z,5.87
2018-12-06T10:10:56.187Z,4.87
2018-12-06T10:13:28.882Z,5.77
2018-12-06T10:16:02.047Z,7.20
2018-12-06T10:18:34.827Z,5.97
2018-12-06T10:21:07.932Z,5.97
2018-12-06T10:23:40.740Z,5.87
2018-12-06T10:26:13.519Z,5.90
2018-12-06T10:28:46.096Z,5.47
2018-12-06T10:31:18.638Z,7.00
2018-12-06T10:33:51.246Z,6.40
2018-12-06T10:36:24.103Z,6.63
2018-12-06T10:38:56.742Z,7.17
2018-12-06T10:41:29.325Z,6.77
2018-12-06T10:44:01.867Z,7.53
2018-12-06T10:46:34.728Z,7.37
2018-12-06T10:49:07.268Z,7.80
2018-12-06T10:51:44.969Z,7.90
2018-12-06T10:54:17.707Z,6.00
2018-12-06T10:56:50.667Z,5.53
2018-12-06T10:59:23.399Z,5.73
2018-12-06T11:02:00.511Z,5.60
2018-12-06T11:04:38.095Z,7.73
2018-12-06T11:07:11.252Z,7.90
2018-12-06T11:09:45.736Z,10.40
2018-12-06T11:12:18.355Z,7.70
2018-12-06T11:14:52.348Z,15.00
2018-12-06T11:17:25.135Z,9.90
2018-12-06T11:19:57.778Z,8.80
2018-12-06T11:22:30.422Z,13.17
2018-12-06T11:25:03.003Z,9.40
2018-12-06T11:34:36.523Z,10.03
2018-12-06T11:37:09.038Z,11.67
2018-12-06T11:39:41.829Z,6.60
2018-12-06T11:42:14.611Z,11.03
2018-12-06T11:44:47.426Z,7.13
2018-12-06T11:47:20.072Z,12.57
2018-12-06T11:49:53.465Z,7.33
2018-12-06T11:52:26.168Z,8.40
2018-12-06T11:54:58.827Z,11.87
2018-12-06T11:57:31.374Z,11.53
2018-12-06T12:00:04.872Z,18.13
2018-12-06T12:02:40.559Z,7.90
2018-12-06T12:05:13.241Z,9.57
2018-12-06T12:07:46.863Z,9.77
2018-12-06T12:10:20.540Z,10.50
2018-12-06T12:12:53.183Z,7.90
2018-12-06T12:15:27.716Z,10.50
2018-12-06T12:18:01.227Z,10.67
2018-12-06T12:20:33.798Z,14.37
2018-12-06T12:23:10.643Z,10.63
2018-12-06T12:25:43.740Z,10.50
2018-12-06T12:28:18.500Z,8.70
2018-12-06T12:30:57.084Z,9.20
2018-12-06T12:33:30.121Z,10.77
2018-12-06T12:36:03.595Z,8.93
2018-12-06T12:38:38.565Z,10.33
2018-12-06T12:41:14.599Z,9.30
2018-12-06T12:43:48.146Z,9.50
2018-12-06T12:46:23.405Z,8.53
2018-12-06T12:48:56.382Z,10.63
2018-12-06T12:51:31.683Z,10.63
2018-12-06T12:54:05.200Z,15.83
2018-12-06T12:56:38.143Z,10.10
2018-12-06T13:02:22.360Z,9.83
2018-12-06T13:25:09.981Z,9.80
2018-12-06T13:40:50.651Z,9.47
2018-12-06T13:53:31.167Z,6.77
2018-12-06T13:56:15.919Z,14.13
2018-12-06T14:02:06.598Z,8.00
2018-12-06T14:04:39.849Z,10.30
2018-12-06T14:07:12.475Z,6.53
2018-12-06T14:09:46.564Z,7.83
2018-12-06T14:12:19.238Z,9.97
2018-12-06T14:15:06.433Z,18.17
2018-12-06T14:17:39.971Z,17.33
2018-12-06T14:24:30.470Z,5.03
2018-12-06T14:27:07.045Z,19.97
2018-12-06T14:29:53.363Z,4.50
2018-12-06T14:32:44.749Z,7.03
2018-12-06T14:39:03.791Z,5.23
2018-12-06T14:46:51.573Z,6.03
2018-12-06T14:49:25.106Z,10.85
2018-12-06T14:51:59.703Z,3.67
2018-12-06T14:58:39.521Z,4.83
2018-12-06T15:01:20.816Z,5.50
2018-12-06T15:03:53.222Z,15.73
2018-12-06T15:06:27.299Z,10.77
2018-12-06T15:09:39.145Z,4.13
2018-12-06T15:12:27.710Z,4.30
2018-12-06T15:32:01.345Z,12.17
2018-12-06T15:34:42.439Z,7.87
2018-12-06T15:40:36.504Z,3.60
2018-12-06T15:43:32.720Z,3.75
2018-12-06T15:59:06.527Z,6.50
2018-12-06T16:01:39.906Z,3.00
2018-12-06T16:04:15.422Z,3.90
2018-12-06T16:06:53.836Z,4.00
2018-12-06T16:09:27.489Z,5.37
2018-12-06T16:12:01.496Z,5.50
2018-12-06T16:14:34.430Z,4.50
2018-12-06T16:17:15.763Z,3.30
2018-12-06T16:19:55.357Z,3.73
2018-12-06T16:22:28.459Z,3.40
2018-12-06T16:25:10.529Z,4.50
2018-12-06T16:27:43.710Z,3.93
2018-12-06T16:30:16.531Z,3.17
2018-12-06T16:32:49.622Z,3.50
2018-12-06T16:35:22.614Z,5.77
2018-12-06T16:37:55.356Z,5.75
2018-12-06T16:40:28.023Z,3.47
2018-12-06T16:43:00.553Z,4.50
2018-12-06T16:45:33.830Z,5.07
2018-12-06T16:48:06.958Z,3.80
2018-12-06T16:50:39.624Z,3.10
2018-12-06T16:53:12.249Z,3.90
2018-12-06T16:55:47.770Z,8.13
2018-12-06T16:58:20.920Z,3.70
2018-12-06T17:00:53.766Z,4.77
2018-12-06T17:03:28.302Z,5.67
2018-12-06T17:06:02.900Z,5.20
2018-12-06T17:08:35.600Z,3.00
2018-12-06T17:11:09.049Z,7.80
2018-12-06T17:13:41.843Z,4.17
2018-12-06T17:16:19.150Z,6.03
2018-12-06T17:18:51.477Z,4.23
2018-12-06T17:21:25.107Z,3.40
2018-12-06T17:23:57.992Z,3.50
2018-12-06T17:26:34.762Z,3.20
2018-12-06T17:29:07.431Z,7.07
2018-12-06T17:37:23.666Z,2.37
2018-12-06T17:39:56.346Z,4.23
2018-12-06T17:42:29.678Z,4.10
2018-12-06T17:45:04.220Z,6.57
2018-12-06T17:47:37.053Z,4.63
2018-12-06T17:50:10.204Z,4.27
2018-12-06T17:52:43.129Z,3.97
2018-12-06T17:55:15.867Z,6.47
2018-12-06T17:57:48.918Z,3.97
2018-12-06T18:00:21.670Z,6.27
2018-12-06T18:02:55.785Z,4.73
2018-12-06T18:05:29.078Z,8.60
2018-12-06T18:08:02.919Z,4.83
2018-12-06T18:10:36.316Z,7.47
2018-12-06T18:13:09.312Z,5.13
2018-12-06T18:15:48.806Z,3.90
2018-12-06T18:18:21.252Z,3.40
2018-12-06T18:24:54.340Z,5.05
2018-12-06T18:27:27.615Z,6.60
2018-12-06T18:59:11.961Z,4.27
2018-12-06T19:01:44.536Z,3.80
2018-12-06T19:10:42.853Z,4.97
2018-12-06T19:13:20.457Z,3.43
2018-12-06T19:15:54.969Z,4.30
2018-12-06T19:18:28.012Z,3.33
2018-12-06T19:21:23.700Z,4.13
2018-12-06T19:23:57.037Z,4.97
2018-12-06T19:29:41.851Z,3.10
2018-12-06T19:43:54.722Z,8.30
2018-12-06T20:06:49.565Z,3.77
2018-12-06T20:22:58.438Z,4.90
2018-12-06T20:25:40.815Z,6.73
2018-12-06T20:45:21.890Z,5.47
2018-12-06T20:48:01.796Z,5.57
2018-12-06T20:50:58.089Z,3.43
2018-12-06T20:53:31.114Z,3.67
2018-12-06T20:56:17.899Z,5.10
2018-12-06T20:58:54.654Z,5.80
2018-12-06T21:01:35.221Z,4.37
2018-12-06T21:40:38.689Z,6.00
2018-12-06T21:43:36.197Z,10.33
2018-12-06T21:46:19.865Z,5.80
2018-12-06T22:02:49.038Z,3.98
2018-12-06T22:08:21.252Z,5.93
2018-12-06T22:10:53.805Z,5.43
2018-12-06T22:13:27.510Z,5.80
2018-12-06T22:16:00.428Z,5.63
2018-12-06T22:18:34.130Z,4.47
2018-12-06T22:21:08.665Z,6.20
2018-12-06T22:42:44.524Z,6.27
2018-12-06T22:45:56.060Z,4.83
2018-12-06T22:48:28.920Z,3.63
2018-12-06T22:51:02.672Z,5.10
2018-12-06T22:53:35.609Z,5.90
2018-12-06T22:56:15.175Z,4.70
2018-12-06T22:58:48.376Z,9.43
2018-12-06T23:01:25.302Z,6.13
2018-12-06T23:03:59.551Z,6.27
2018-12-06T23:06:52.162Z,7.53
2018-12-06T23:09:25.688Z,6.17
2018-12-06T23:12:08.831Z,4.70
2018-12-06T23:17:49.411Z,28.65
2018-12-06T23:20:22.453Z,10.13
2018-12-06T23:22:55.336Z,9.60
2018-12-06T23:25:28.240Z,7.43
2018-12-06T23:28:01.140Z,6.10
2018-12-06T23:30:35.538Z,5.20
2018-12-06T23:33:12.113Z,7.17
2018-12-06T23:35:55.882Z,6.40
2018-12-06T23:38:29.293Z,7.20
